Time;durP1;ratioP1;P1;durP2;ratioP2;P2;SDS_P1;SDS_P2;PMS_P1;PMS_P2;Temp;Humidity;BMP_temperature;BMP_pressure;BME280_temperature;BME280_humidity;BME280_pressure;Samples;Min_cycle;Max_cycle;Signal;HPM_P1;HPM_P2
2021/11/25 00:00:33;;;;;;;17.85;7.35;;;;;;;12.67;44.81;101189.47;5020947;28;98568;-80
2021/11/25 00:02:59;;;;;;;12.52;8.20;;;;;;;12.61;45.17;101189.69;5017651;28;97011;-80
2021/11/25 00:05:26;;;;;;;14.35;8.60;;;;;;;12.66;45.24;101179.81;5017147;28;98285;-80
2021/11/25 00:07:53;;;;;;;13.95;8.25;;;;;;;12.67;45.33;101185.94;5020290;28;97952;-80
2021/11/25 00:10:22;;;;;;;15.93;8.35;;;;;;;12.47;45.44;101180.53;5014202;28;96864;-79
2021/11/25 00:12:48;;;;;;;14.40;8.73;;;;;;;12.24;46.14;101186.66;5016576;28;97072;-79
2021/11/25 00:15:15;;;;;;;12.52;8.18;;;;;;;12.52;45.71;101186.53;5016925;28;98401;-80
2021/11/25 00:17:42;;;;;;;17.10;7.95;;;;;;;12.49;45.64;101178.69;5019845;28;99205;-80
2021/11/25 00:20:12;;;;;;;12.85;8.07;;;;;;;12.58;45.72;101175.69;5021000;28;97185;-80
2021/11/25 00:22:39;;;;;;;14.50;8.90;;;;;;;12.52;46.41;101171.50;5023205;28;96737;-80
2021/11/25 00:25:07;;;;;;;15.95;8.63;;;;;;;12.62;45.62;101174.66;5028011;28;96780;-79
2021/11/25 00:27:35;;;;;;;18.25;8.68;;;;;;;12.46;45.91;101168.19;5022721;28;98161;-79
2021/11/25 00:30:02;;;;;;;13.52;8.32;;;;;;;12.35;45.79;101166.78;5020931;28;96741;-81
2021/11/25 00:32:29;;;;;;;14.00;8.15;;;;;;;12.21;46.77;101160.25;5022683;28;97205;-80
2021/11/25 00:34:57;;;;;;;14.85;8.27;;;;;;;12.21;46.51;101153.16;5018555;28;98446;-80
2021/11/25 00:37:24;;;;;;;13.25;8.80;;;;;;;12.47;46.16;101152.22;5018164;28;101768;-81
2021/11/25 00:39:50;;;;;;;14.82;8.43;;;;;;;12.49;45.93;101142.44;5017936;28;98633;-80
2021/11/25 00:42:17;;;;;;;13.25;8.73;;;;;;;12.48;46.15;101146.00;5017442;28;97046;-81
2021/11/25 00:44:45;;;;;;;12.90;8.50;;;;;;;12.52;45.71;101139.69;5017263;28;98939;-80
2021/11/25 00:47:12;;;;;;;10.90;7.10;;;;;;;12.45;46.20;101137.31;5018406;28;97780;-79
2021/11/25 00:49:38;;;;;;;12.10;7.63;;;;;;;12.51;45.79;101126.47;5015235;28;98869;-79
2021/11/25 00:52:07;;;;;;;13.10;8.30;;;;;;;12.41;45.29;101125.06;5016688;28;96858;-79
2021/11/25 00:54:33;;;;;;;13.88;7.63;;;;;;;12.38;45.59;101120.78;5014595;28;98640;-80
2021/11/25 00:57:00;;;;;;;11.65;6.93;;;;;;;12.38;45.38;101121.63;5016215;28;99316;-79
2021/11/25 00:59:26;;;;;;;8.40;6.47;;;;;;;12.32;45.30;101124.53;5015839;28;96866;-79
2021/11/25 01:01:54;;;;;;;11.63;6.97;;;;;;;12.24;45.57;101123.06;5014943;28;96893;-78
2021/11/25 01:04:22;;;;;;;7.60;5.20;;;;;;;12.37;44.15;101119.91;5013975;28;99421;-79
2021/11/25 01:06:48;;;;;;;6.95;4.90;;;;;;;12.51;43.64;101118.53;5019203;28;98005;-79
2021/11/25 01:09:16;;;;;;;7.47;4.63;;;;;;;12.45;43.43;101116.09;5020047;28;97605;-79
2021/11/25 01:11:43;;;;;;;5.68;4.40;;;;;;;12.28;43.09;101109.63;5016371;28;96711;-81
2021/11/25 01:14:10;;;;;;;6.50;4.70;;;;;;;12.27;43.01;101105.25;5016554;28;96866;-79
2021/11/25 01:16:36;;;;;;;7.00;4.97;;;;;;;12.46;42.74;101094.00;5016607;28;98873;-81
2021/11/25 01:19:04;;;;;;;6.22;4.40;;;;;;;12.43;42.90;101087.00;5015560;28;96799;-80
2021/11/25 01:21:31;;;;;;;7.40;5.10;;;;;;;12.37;42.83;101088.09;5018922;28;97827;-80
2021/11/25 01:23:59;;;;;;;7.18;5.22;;;;;;;12.25;43.08;101090.34;5027920;28;101189;-80
2021/11/25 01:26:25;;;;;;;5.60;4.18;;;;;;;12.28;43.10;101082.28;5027750;28;98823;-80
2021/11/25 01:28:52;;;;;;;6.35;4.45;;;;;;;12.38;42.97;101078.38;5012102;28;96837;-79
2021/11/25 01:31:18;;;;;;;8.90;4.82;;;;;;;12.34;42.48;101074.09;5011154;28;97130;-80
2021/11/25 01:33:45;;;;;;;6.75;4.55;;;;;;;12.39;42.27;101064.19;5010631;28;99035;-80
2021/11/25 01:36:13;;;;;;;7.85;5.03;;;;;;;12.44;42.32;101066.66;5014393;28;98829;-80
2021/11/25 01:38:40;;;;;;;6.85;5.45;;;;;;;12.43;42.45;101064.94;5014291;28;97658;-80
2021/11/25 01:41:06;;;;;;;8.90;4.68;;;;;;;12.28;43.00;101064.59;5014423;28;96902;-80
2021/11/25 01:43:37;;;;;;;6.25;5.05;;;;;;;12.31;42.87;101056.53;5014632;28;99018;-80
2021/11/25 01:46:11;;;;;;;7.63;5.20;;;;;;;12.20;43.13;101050.78;5012117;28;101759;-80
2021/11/25 01:48:38;;;;;;;8.85;5.45;;;;;;;12.09;43.67;101046.78;5016180;28;97219;-81
2021/11/25 01:51:04;;;;;;;6.00;5.10;;;;;;;12.30;43.46;101032.75;5018134;28;96790;-80
2021/11/25 01:53:32;;;;;;;6.60;5.00;;;;;;;12.00;43.85;101045.34;5020441;28;96932;-80
2021/11/25 01:55:59;;;;;;;6.70;4.85;;;;;;;12.17;43.87;101035.00;5020014;28;99144;-80
2021/11/25 01:58:26;;;;;;;7.18;4.80;;;;;;;12.01;43.49;101032.97;5020081;28;97106;-79
2021/11/25 02:00:57;;;;;;;5.88;5.00;;;;;;;12.08;43.43;101031.84;5021134;28;96815;-79
2021/11/25 02:03:26;;;;;;;6.03;4.75;;;;;;;12.15;43.19;101042.13;5014742;28;99254;-80
2021/11/25 02:05:52;;;;;;;6.53;5.00;;;;;;;12.03;43.77;101028.47;5014910;28;98829;-80
2021/11/25 02:08:19;;;;;;;5.97;4.55;;;;;;;12.03;42.38;101026.69;5013536;28;97133;-80
2021/11/25 02:10:50;;;;;;;5.10;3.92;;;;;;;11.93;42.33;101025.31;5014086;28;97347;-79
2021/11/25 02:13:18;;;;;;;5.82;4.25;;;;;;;12.14;42.37;101021.00;5015486;28;99285;-79
2021/11/25 02:15:46;;;;;;;7.88;4.70;;;;;;;12.19;41.85;101014.63;5014414;28;97753;-79
2021/11/25 02:18:14;;;;;;;7.80;5.05;;;;;;;12.00;42.81;101005.63;5017155;28;96625;-78
2021/11/25 02:20:43;;;;;;;9.40;5.80;;;;;;;11.38;43.50;101006.06;5018177;28;97017;-79
2021/11/25 02:23:12;;;;;;;9.45;6.28;;;;;;;11.48;44.54;100998.69;5017087;28;98260;-80
2021/11/25 02:25:39;;;;;;;11.90;6.90;;;;;;;11.49;43.61;100990.66;5020351;28;99044;-81
2021/11/25 02:28:08;;;;;;;10.43;6.60;;;;;;;11.50;43.63;100989.75;5020581;28;96735;-81
2021/11/25 02:30:37;;;;;;;9.77;7.20;;;;;;;11.55;43.96;100985.16;5022963;28;96960;-80
2021/11/25 02:33:04;;;;;;;8.68;6.90;;;;;;;11.96;43.18;100983.69;5018481;28;97876;-81
2021/11/25 02:35:34;;;;;;;9.27;7.60;;;;;;;11.94;43.42;100980.25;5017227;28;98891;-80
2021/11/25 02:38:03;;;;;;;10.13;7.18;;;;;;;12.05;43.37;100977.19;5015447;28;98845;-78
2021/11/25 02:40:33;;;;;;;9.95;7.85;;;;;;;11.75;43.54;100975.69;5016499;28;97055;-81
2021/11/25 02:43:04;;;;;;;11.23;8.55;;;;;;;11.71;43.42;100972.25;5016269;28;98974;-80
2021/11/25 02:45:32;;;;;;;11.88;8.32;;;;;;;11.93;43.16;100964.41;5016045;28;99301;-81
2021/11/25 02:48:00;;;;;;;11.40;8.13;;;;;;;12.01;42.53;100957.03;5018694;28;97196;-78
2021/11/25 02:50:27;;;;;;;12.18;8.73;;;;;;;11.73;41.98;100956.31;5020780;28;96864;-78
2021/11/25 02:52:53;;;;;;;11.57;8.77;;;;;;;11.62;42.11;100961.13;5018258;28;98980;-80
2021/11/25 02:55:21;;;;;;;11.45;9.13;;;;;;;11.69;42.03;100944.94;5018521;28;101793;-80
2021/11/25 02:57:48;;;;;;;12.55;9.73;;;;;;;11.72;42.06;100946.63;5020347;28;96667;-80
2021/11/25 03:00:31;;;;;;;12.10;9.45;;;;;;;11.78;41.95;100939.34;5020532;28;96940;-81
2021/11/25 03:03:00;;;;;;;14.80;9.65;;;;;;;11.70;42.22;100943.16;5017555;28;98043;-80
2021/11/25 03:05:27;;;;;;;13.20;9.55;;;;;;;11.54;41.67;100946.41;5016303;28;98796;-80
2021/11/25 03:07:54;;;;;;;18.08;11.25;;;;;;;11.36;42.32;100931.16;5017943;28;98869;-81
2021/11/25 03:10:21;;;;;;;16.08;11.32;;;;;;;11.58;41.96;100926.81;5017471;28;96852;-80
2021/11/25 03:12:48;;;;;;;15.57;10.90;;;;;;;11.58;41.97;100925.97;5017376;28;98967;-81
2021/11/25 03:15:15;;;;;;;15.23;11.02;;;;;;;11.54;41.49;100913.78;5018660;28;99237;-81
2021/11/25 03:17:43;;;;;;;15.57;11.27;;;;;;;11.31;41.66;100926.94;5000037;28;98671;-81
2021/11/25 03:20:12;;;;;;;16.35;12.15;;;;;;;11.52;41.99;100924.41;5018052;28;98076;-80
2021/11/25 03:22:39;;;;;;;16.55;11.27;;;;;;;11.33;41.73;100917.19;5015684;28;98182;-81
2021/11/25 03:25:06;;;;;;;16.08;12.32;;;;;;;11.36;41.76;100912.63;5018219;28;98892;-80
2021/11/25 03:27:34;;;;;;;16.40;12.48;;;;;;;11.35;41.85;100924.16;5012560;28;97156;-79
2021/11/25 03:30:01;;;;;;;16.70;11.98;;;;;;;11.48;41.60;100916.66;5022425;28;96833;-79
2021/11/25 03:32:27;;;;;;;16.20;12.07;;;;;;;11.48;41.36;100909.56;5013786;28;98914;-80
2021/11/25 03:34:55;;;;;;;19.90;13.18;;;;;;;11.13;41.27;100917.91;5014134;28;97663;-79
2021/11/25 03:37:21;;;;;;;18.52;13.75;;;;;;;10.95;42.53;100914.13;5014910;28;97229;-79
2021/11/25 03:39:48;;;;;;;17.13;12.63;;;;;;;10.97;41.97;100906.09;5016834;28;97392;-79
2021/11/25 03:42:14;;;;;;;17.17;12.85;;;;;;;10.96;42.10;100905.25;5016143;28;97913;-81
2021/11/25 03:44:44;;;;;;;19.98;14.05;;;;;;;10.89;42.10;100895.81;5014313;28;99075;-78
2021/11/25 03:47:11;;;;;;;20.50;14.75;;;;;;;10.82;42.66;100896.94;5016479;28;97079;-80
2021/11/25 03:49:38;;;;;;;22.40;14.35;;;;;;;10.94;42.00;100893.00;5020855;28;97002;-79
2021/11/25 03:52:05;;;;;;;19.17;14.55;;;;;;;11.36;41.54;100894.13;5023469;28;96745;-80
2021/11/25 03:54:32;;;;;;;18.80;14.20;;;;;;;11.19;41.18;100878.00;5016291;28;98931;-80
2021/11/25 03:56:59;;;;;;;22.85;15.13;;;;;;;11.22;41.25;100877.91;5015628;28;97567;-79
2021/11/25 03:59:26;;;;;;;25.83;15.93;;;;;;;11.12;41.36;100880.00;5016513;28;96783;-80
2021/11/25 04:01:54;;;;;;;24.80;16.08;;;;;;;11.34;41.06;100869.53;5015400;28;99542;-80
2021/11/25 04:04:20;;;;;;;22.42;15.20;;;;;;;11.18;41.27;100871.84;5015676;28;98111;-80
2021/11/25 04:06:47;;;;;;;23.02;16.17;;;;;;;11.15;41.06;100868.47;5014888;28;96703;-80
2021/11/25 04:09:14;;;;;;;25.05;17.17;;;;;;;11.33;40.91;100861.63;5016771;28;96823;-79
2021/11/25 04:11:41;;;;;;;23.90;16.30;;;;;;;11.37;40.75;100850.88;5015204;28;98839;-79
2021/11/25 04:14:08;;;;;;;25.35;16.95;;;;;;;11.31;40.40;100852.88;5014708;28;99424;-80
2021/11/25 04:16:34;;;;;;;22.77;16.25;;;;;;;10.82;41.20;100846.72;5015481;28;96959;-80
2021/11/25 04:19:02;;;;;;;25.55;16.58;;;;;;;10.57;41.89;100849.31;5016946;28;97243;-80
2021/11/25 04:21:29;;;;;;;31.10;18.25;;;;;;;10.83;41.73;100850.22;5013781;28;98581;-80
2021/11/25 04:23:55;;;;;;;27.15;18.65;;;;;;;10.97;41.65;100847.94;5014897;28;99017;-79
2021/11/25 04:26:22;;;;;;;30.58;19.40;;;;;;;10.88;41.22;100854.44;5015431;28;97670;-81
2021/11/25 04:28:48;;;;;;;30.83;20.52;;;;;;;10.85;41.61;100849.25;5015822;28;96830;-80
2021/11/25 04:36:44;;;;;;;31.52;20.88;;;;;;;10.59;41.91;100830.78;5010365;28;96730;-80
2021/11/25 04:39:12;;;;;;;31.92;20.85;;;;;;;10.59;41.87;100833.41;5012300;28;97195;-81
2021/11/25 04:41:39;;;;;;;29.70;20.00;;;;;;;10.48;42.80;100833.78;5013343;28;100860;-80
2021/11/25 04:44:06;;;;;;;33.00;21.50;;;;;;;10.53;41.82;100828.34;5012397;28;99143;-80
2021/11/25 04:46:32;;;;;;;31.15;21.27;;;;;;;10.55;42.33;100835.31;5013445;28;96723;-80
2021/11/25 04:48:58;;;;;;;32.17;21.55;;;;;;;10.40;42.14;100841.09;5012578;28;98531;-80
2021/11/25 04:51:25;;;;;;;31.88;21.02;;;;;;;10.11;43.05;100834.09;5013447;28;99417;-79
2021/11/25 04:53:54;;;;;;;31.33;21.45;;;;;;;10.13;42.57;100820.84;5012019;28;99159;-80
2021/11/25 04:56:20;;;;;;;35.10;22.10;;;;;;;10.37;42.55;100820.09;5013455;28;97099;-80
2021/11/25 04:58:47;;;;;;;39.50;23.83;;;;;;;10.73;41.69;100832.03;5012675;28;97552;-80
2021/11/25 05:01:13;;;;;;;32.20;21.50;;;;;;;10.89;40.78;100824.44;5012173;28;98908;-80
2021/11/25 05:03:40;;;;;;;35.40;22.67;;;;;;;11.09;40.30;100826.38;5011773;28;98102;-80
2021/11/25 05:06:07;;;;;;;33.45;21.42;;;;;;;10.92;40.48;100821.69;5013475;28;96774;-80
2021/11/25 05:08:33;;;;;;;33.58;22.05;;;;;;;10.70;41.22;100818.03;5014591;28;97240;-80
2021/11/25 05:11:01;;;;;;;33.67;22.38;;;;;;;11.16;40.87;100811.97;5017135;28;98207;-81
2021/11/25 05:13:27;;;;;;;34.38;21.77;;;;;;;11.17;40.39;100813.72;5011435;28;102063;-80
2021/11/25 05:15:54;;;;;;;34.50;21.88;;;;;;;11.00;40.83;100810.81;5013642;28;96993;-80
2021/11/25 05:18:21;;;;;;;33.35;20.17;;;;;;;11.17;40.41;100797.84;5021693;28;96963;-80
2021/11/25 05:20:47;;;;;;;34.58;22.35;;;;;;;11.10;40.44;100791.03;5010606;28;98685;-80
2021/11/25 05:23:14;;;;;;;35.28;22.35;;;;;;;11.29;40.30;100792.09;5011513;28;100694;-79
2021/11/25 05:25:41;;;;;;;38.17;24.08;;;;;;;11.30;40.89;100791.16;5009348;28;97627;-80
2021/11/25 05:28:08;;;;;;;34.28;22.20;;;;;;;11.30;40.41;100796.47;5011712;28;96902;-80
2021/11/25 05:30:35;;;;;;;33.85;22.15;;;;;;;11.08;41.02;100787.63;5009914;28;98411;-80
2021/11/25 05:33:03;;;;;;;38.05;24.20;;;;;;;10.84;41.38;100799.94;5012621;28;99151;-80
2021/11/25 05:35:29;;;;;;;36.20;23.70;;;;;;;10.80;41.45;100800.97;5010822;28;97396;-80
2021/11/25 05:37:57;;;;;;;33.22;21.80;;;;;;;10.48;41.74;100788.88;5012070;28;96812;-80
2021/11/25 05:40:23;;;;;;;37.53;24.30;;;;;;;10.80;41.68;100793.03;5011451;28;98206;-80
2021/11/25 05:42:50;;;;;;;40.67;25.17;;;;;;;11.12;41.26;100786.56;5012034;28;97715;-80
2021/11/25 05:45:20;;;;;;;37.03;24.00;;;;;;;11.04;41.40;100791.28;5013185;28;97582;-80
2021/11/25 05:47:47;;;;;;;36.42;22.60;;;;;;;10.90;41.50;100781.19;5011503;28;97654;-81
2021/11/25 05:50:18;;;;;;;37.20;22.98;;;;;;;11.04;41.36;100776.28;5011573;28;98998;-79
2021/11/25 05:52:45;;;;;;;37.92;23.48;;;;;;;11.03;41.67;100779.84;5014466;28;97784;-80
2021/11/25 05:55:11;;;;;;;38.05;24.33;;;;;;;10.82;42.29;100775.34;5015313;28;97013;-80
2021/11/25 05:57:38;;;;;;;37.80;22.58;;;;;;;10.68;42.69;100780.25;5015078;28;97005;-80
2021/11/25 06:00:07;;;;;;;38.45;24.08;;;;;;;10.90;42.71;100775.03;5014955;28;99229;-81
2021/11/25 06:02:35;;;;;;;35.92;22.98;;;;;;;10.95;42.51;100767.84;5013144;28;98796;-81
2021/11/25 06:05:02;;;;;;;39.60;23.98;;;;;;;11.04;42.40;100764.84;5015761;28;96633;-79
2021/11/25 06:07:28;;;;;;;57.58;33.50;;;;;;;11.10;42.23;100759.31;5007763;28;96971;-80
2021/11/25 06:09:55;;;;;;;40.92;26.92;;;;;;;11.20;41.92;100752.78;5015567;28;99527;-79
2021/11/25 06:12:21;;;;;;;38.35;24.55;;;;;;;11.04;42.38;100751.63;5008364;28;98922;-80
2021/11/25 06:14:48;;;;;;;36.38;24.38;;;;;;;11.04;42.36;100747.19;5014045;28;96752;-80
2021/11/25 06:17:14;;;;;;;38.95;24.17;;;;;;;11.12;42.37;100753.06;5018069;28;97754;-80
2021/11/25 06:19:42;;;;;;;36.40;23.80;;;;;;;10.87;43.07;100741.69;5017671;27;98116;-79
2021/11/25 06:22:09;;;;;;;39.97;25.00;;;;;;;11.07;42.57;100746.22;5016611;28;99185;-79
2021/11/25 06:24:35;;;;;;;36.90;23.45;;;;;;;10.95;42.92;100741.41;5014257;28;98635;-78
2021/11/25 06:27:03;;;;;;;36.13;23.45;;;;;;;10.75;43.10;100736.84;5016009;28;96877;-79
2021/11/25 06:29:29;;;;;;;43.47;25.23;;;;;;;10.91;43.06;100742.41;5011648;28;98151;-80
2021/11/25 06:31:56;;;;;;;41.38;25.55;;;;;;;10.70;43.34;100746.69;5006757;28;99199;-80
2021/11/25 06:34:22;;;;;;;41.28;25.55;;;;;;;10.88;43.50;100743.41;5013245;28;97793;-79
2021/11/25 06:36:50;;;;;;;38.15;25.10;;;;;;;10.93;43.34;100736.16;5014005;28;97249;-79
2021/11/25 06:39:16;;;;;;;40.85;24.20;;;;;;;10.98;43.31;100733.34;5013995;28;97880;-79
2021/11/25 06:41:43;;;;;;;37.05;23.45;;;;;;;11.02;43.30;100727.03;5013081;28;98595;-80
2021/11/25 06:44:10;;;;;;;37.83;24.42;;;;;;;10.98;43.25;100733.34;5014733;28;96813;-78
2021/11/25 06:46:36;;;;;;;39.35;24.73;;;;;;;11.18;42.99;100730.81;5013726;28;96907;-78
2021/11/25 06:49:04;;;;;;;38.72;25.58;;;;;;;11.16;43.13;100727.34;5015267;28;97836;-80
2021/11/25 06:51:30;;;;;;;40.60;24.77;;;;;;;11.02;42.98;100719.09;5012698;28;98872;-81
2021/11/25 06:53:58;;;;;;;40.50;25.30;;;;;;;11.05;43.40;100717.19;5016966;28;96647;-80
2021/11/25 06:56:29;;;;;;;40.25;24.73;;;;;;;11.07;42.81;100710.06;5018901;28;96914;-80
2021/11/25 06:58:56;;;;;;;38.53;24.35;;;;;;;11.15;42.33;100708.00;5025213;28;101771;-81
2021/11/25 07:01:24;;;;;;;40.50;24.08;;;;;;;11.05;42.35;100705.75;5012124;28;100156;-82
2021/11/25 07:03:51;;;;;;;39.28;24.67;;;;;;;11.07;42.39;100695.97;5013121;28;97707;-80
2021/11/25 07:06:19;;;;;;;37.47;23.25;;;;;;;10.91;42.59;100700.13;5016640;28;96843;-80
2021/11/25 07:08:46;;;;;;;37.05;23.95;;;;;;;10.94;42.56;100703.53;5021622;28;100230;-79
2021/11/25 07:11:14;;;;;;;37.63;25.27;;;;;;;11.07;42.69;100706.56;5016248;28;99309;-80
2021/11/25 07:13:40;;;;;;;37.25;23.77;;;;;;;11.16;42.45;100706.19;5019068;28;96644;-80
2021/11/25 07:16:07;;;;;;;36.30;22.88;;;;;;;10.96;42.94;100706.13;5015407;28;97104;-80
2021/11/25 07:18:34;;;;;;;38.92;23.38;;;;;;;11.10;42.62;100696.72;5014750;28;101653;-80
2021/11/25 07:21:01;;;;;;;37.92;23.35;;;;;;;10.98;42.65;100696.31;5010836;28;99395;-81
2021/11/25 07:23:28;;;;;;;44.88;25.38;;;;;;;11.06;42.59;100697.75;5013051;28;96981;-80
2021/11/25 07:25:55;;;;;;;40.65;24.98;;;;;;;10.96;42.69;100696.38;5013202;28;97320;-81
2021/11/25 07:28:23;;;;;;;36.90;23.60;;;;;;;10.92;42.90;100692.13;5014828;28;98457;-81
2021/11/25 07:30:51;;;;;;;35.78;23.17;;;;;;;10.98;42.89;100686.59;5012846;27;101018;-82
2021/11/25 07:33:17;;;;;;;35.95;22.65;;;;;;;10.93;42.96;100682.41;5015300;28;97234;-80
2021/11/25 07:35:46;;;;;;;41.97;23.75;;;;;;;10.78;43.00;100683.84;5013933;28;97105;-79
2021/11/25 07:38:13;;;;;;;41.53;24.45;;;;;;;10.83;43.00;100681.88;5014879;28;98999;-82
2021/11/25 07:40:42;;;;;;;39.30;23.95;;;;;;;11.02;43.12;100676.78;5011580;28;98857;-83
2021/11/25 07:43:10;;;;;;;39.45;24.30;;;;;;;11.12;42.98;100673.72;5013770;28;97328;-79
2021/11/25 07:45:38;;;;;;;37.42;23.90;;;;;;;10.95;42.80;100681.47;5014564;28;98577;-81
2021/11/25 07:48:05;;;;;;;43.65;24.67;;;;;;;11.11;42.47;100676.41;5009177;28;99315;-80
2021/11/25 07:50:32;;;;;;;41.75;25.02;;;;;;;11.12;42.86;100679.00;5014736;28;97389;-81
2021/11/25 07:52:59;;;;;;;40.97;25.27;;;;;;;11.09;42.95;100673.81;5008765;28;97358;-80
2021/11/25 07:55:26;;;;;;;39.28;23.50;;;;;;;11.25;42.55;100673.25;5007666;28;96851;-82
2021/11/25 07:57:53;;;;;;;41.75;24.85;;;;;;;11.21;42.35;100671.66;5015141;28;101252;-82
2021/11/25 08:00:23;;;;;;;47.42;25.90;;;;;;;11.43;41.91;100664.56;5014125;28;98500;-79
2021/11/25 08:02:51;;;;;;;40.45;24.15;;;;;;;11.33;42.69;100661.44;5003110;28;98612;-80
2021/11/25 08:05:19;;;;;;;37.10;24.17;;;;;;;11.68;42.22;100651.22;5002530;28;97287;-79
2021/11/25 08:07:45;;;;;;;50.92;23.95;;;;;;;11.36;42.41;100650.72;5004732;28;100384;-80
2021/11/25 08:10:14;;;;;;;37.90;23.60;;;;;;;11.43;42.47;100646.91;5000414;28;97800;-79
2021/11/25 08:12:41;;;;;;;39.72;24.52;;;;;;;11.35;42.48;100649.03;4998214;28;97788;-79
2021/11/25 08:15:09;;;;;;;36.92;23.05;;;;;;;11.29;42.31;100638.66;5008464;28;97613;-80
2021/11/25 08:17:35;;;;;;;43.25;23.50;;;;;;;10.92;42.93;100631.31;5002791;28;98649;-80
2021/11/25 08:20:04;;;;;;;36.65;22.65;;;;;;;11.07;42.77;100635.16;5003414;28;99426;-78
2021/11/25 08:22:31;;;;;;;38.75;23.63;;;;;;;11.21;43.14;100632.84;5001687;28;98861;-79
2021/11/25 08:24:58;;;;;;;39.35;23.30;;;;;;;11.69;42.38;100635.25;5004133;28;98684;-79
2021/11/25 08:27:27;;;;;;;36.47;21.80;;;;;;;11.57;41.98;100633.13;5007073;28;98826;-79
2021/11/25 08:29:53;;;;;;;36.65;23.13;;;;;;;11.34;42.54;100639.38;5012942;28;99954;-80
2021/11/25 08:32:20;;;;;;;40.58;23.45;;;;;;;11.32;42.44;100637.69;5009529;28;97182;-80
2021/11/25 08:34:47;;;;;;;36.65;21.75;;;;;;;11.17;42.07;100641.81;5021869;28;96565;-84
2021/11/25 08:37:15;;;;;;;33.97;20.73;;;;;;;11.06;41.67;100646.66;5026907;28;97982;-80
2021/11/25 08:39:42;;;;;;;39.58;22.58;;;;;;;11.22;41.87;100650.44;5023911;28;99834;-82
2021/11/25 08:42:10;;;;;;;35.95;21.38;;;;;;;10.91;42.38;100644.59;5022909;28;96843;-82
2021/11/25 08:44:38;;;;;;;34.47;20.20;;;;;;;11.01;42.13;100640.69;5016413;28;97662;-82
2021/11/25 08:49:45;;;;;;;33.20;21.08;;;;;;;10.93;42.42;100630.41;5012590;28;99483;-83
2021/11/25 08:52:12;;;;;;;34.95;21.63;;;;;;;10.89;42.26;100622.66;5010047;28;97060;-82
2021/11/25 08:54:40;;;;;;;33.90;21.23;;;;;;;10.73;42.76;100625.03;5006412;28;97441;-79
2021/11/25 08:57:07;;;;;;;37.47;22.00;;;;;;;10.72;42.97;100626.81;5002974;28;97735;-80
2021/11/25 08:59:33;;;;;;;34.75;21.20;;;;;;;10.87;42.96;100632.44;4997841;28;101344;-79
2021/11/25 09:02:00;;;;;;;34.67;21.33;;;;;;;10.91;42.73;100631.38;4994516;28;98017;-79
2021/11/25 09:04:27;;;;;;;34.67;21.20;;;;;;;10.73;43.03;100628.53;5003369;28;97172;-81
2021/11/25 09:06:54;;;;;;;37.60;21.02;;;;;;;10.87;42.64;100627.13;5008957;28;97826;-80
2021/11/25 09:09:22;;;;;;;40.95;21.65;;;;;;;10.98;42.21;100622.28;5009737;28;101297;-80
2021/11/25 09:11:50;;;;;;;43.83;22.42;;;;;;;11.00;42.73;100615.16;5011146;28;97301;-79
2021/11/25 09:14:17;;;;;;;34.75;21.98;;;;;;;11.18;42.27;100611.78;5019251;28;97547;-78
2021/11/25 09:16:44;;;;;;;43.67;21.90;;;;;;;11.28;42.47;100626.38;5012247;27;101201;-78
2021/11/25 09:19:14;;;;;;;35.53;21.85;;;;;;;11.00;41.62;100615.16;5007550;28;99194;-78
2021/11/25 09:21:40;;;;;;;37.55;22.52;;;;;;;11.23;42.50;100612.47;5009099;28;96724;-79
2021/11/25 09:24:08;;;;;;;38.53;22.65;;;;;;;11.46;42.13;100620.34;5022053;28;96966;-80
2021/11/25 09:26:36;;;;;;;36.50;22.90;;;;;;;11.21;42.37;100619.63;5020051;28;98780;-80
2021/11/25 09:29:05;;;;;;;37.97;23.48;;;;;;;11.20;42.78;100620.53;5024224;28;98903;-79
2021/11/25 09:31:33;;;;;;;40.13;23.25;;;;;;;11.22;42.99;100613.41;5011612;28;96901;-81
2021/11/25 09:34:01;;;;;;;39.15;24.60;;;;;;;11.49;42.11;100609.63;5017774;28;97222;-80
2021/11/25 09:36:31;;;;;;;34.78;21.92;;;;;;;11.53;42.09;100605.06;5015039;28;100427;-81
2021/11/25 09:38:58;;;;;;;37.92;22.58;;;;;;;11.40;41.83;100610.00;5013368;28;96906;-81
2021/11/25 09:41:25;;;;;;;39.33;22.17;;;;;;;11.20;42.08;100607.31;5012937;28;98377;-81
2021/11/25 09:43:52;;;;;;;39.75;22.42;;;;;;;11.12;42.20;100604.09;5013958;28;96865;-81
2021/11/25 09:46:23;;;;;;;35.55;20.70;;;;;;;10.82;43.09;100598.25;5022062;28;101347;-81
2021/11/25 09:48:50;;;;;;;36.47;23.40;;;;;;;11.31;42.22;100597.16;5023109;28;98136;-81
2021/11/25 09:51:18;;;;;;;38.53;23.20;;;;;;;11.23;42.50;100590.44;5015768;28;96994;-80
2021/11/25 09:53:44;;;;;;;40.10;23.20;;;;;;;11.21;42.82;100594.94;5017540;28;97367;-80
2021/11/25 09:56:11;;;;;;;35.92;22.77;;;;;;;11.27;42.81;100587.63;5008595;28;97954;-79
2021/11/25 09:58:38;;;;;;;33.30;20.98;;;;;;;11.37;42.75;100588.97;5016778;28;101241;-79
2021/11/25 10:01:11;;;;;;;37.13;22.88;;;;;;;11.53;42.92;100582.13;5022776;28;96801;-80
2021/11/25 10:03:50;;;;;;;38.88;22.08;;;;;;;11.72;42.25;100568.97;5028814;28;96891;-81
2021/11/25 10:06:18;;;;;;;32.28;22.10;;;;;;;11.66;42.41;100555.13;5032498;28;97471;-79
2021/11/25 10:08:48;;;;;;;35.70;22.02;;;;;;;11.94;41.75;100558.34;5028303;28;96867;-78
2021/11/25 10:11:17;;;;;;;36.08;22.90;;;;;;;11.91;41.87;100555.81;5029686;28;97468;-78
2021/11/25 10:13:46;;;;;;;36.05;21.63;;;;;;;11.70;42.54;100564.66;5033970;28;96818;-78
2021/11/25 10:16:16;;;;;;;33.28;21.80;;;;;;;11.46;42.72;100555.97;5030402;28;97904;-77
2021/11/25 10:18:45;;;;;;;35.22;22.08;;;;;;;11.43;42.65;100545.50;5022646;28;98258;-78
2021/11/25 10:21:13;;;;;;;33.70;20.80;;;;;;;11.29;42.88;100545.25;5013267;28;97698;-78
2021/11/25 10:23:41;;;;;;;35.67;21.92;;;;;;;11.40;42.80;100538.59;5011006;28;97896;-78
2021/11/25 10:26:10;;;;;;;34.72;22.50;;;;;;;11.28;42.44;100546.16;5011517;28;101751;-79
2021/11/25 10:28:41;;;;;;;32.47;20.80;;;;;;;10.71;43.59;100535.22;5009886;28;98801;-78
2021/11/25 10:31:14;;;;;;;32.17;21.08;;;;;;;10.97;42.83;100528.91;5011949;28;96965;-78
2021/11/25 10:33:53;;;;;;;40.00;22.27;;;;;;;10.78;43.28;100534.06;5007385;28;96909;-78
2021/11/25 10:36:35;;;;;;;31.15;20.80;;;;;;;10.97;42.90;100542.13;5011680;28;99520;-79
2021/11/25 10:39:09;;;;;;;35.03;20.15;;;;;;;10.96;43.22;100534.28;5011816;28;100297;-77
2021/11/25 10:41:39;;;;;;;33.90;21.27;;;;;;;11.14;42.56;100529.09;5013211;28;96893;-78
2021/11/25 10:44:18;;;;;;;35.75;20.27;;;;;;;10.93;42.59;100523.81;5011568;28;97366;-79
2021/11/25 10:46:50;;;;;;;30.42;20.40;;;;;;;10.99;43.25;100513.84;5009823;28;98199;-79
2021/11/25 10:49:20;;;;;;;32.55;20.52;;;;;;;11.08;42.69;100523.19;5012876;28;102127;-76
2021/11/25 10:51:49;;;;;;;34.15;20.05;;;;;;;11.03;43.08;100520.72;5013490;28;96781;-81
2021/11/25 10:54:18;;;;;;;29.92;18.95;;;;;;;10.65;43.06;100527.53;5009664;28;98589;-78
2021/11/25 10:56:47;;;;;;;28.75;18.35;;;;;;;10.81;43.75;100522.53;5010063;28;99046;-79
2021/11/25 10:59:19;;;;;;;33.10;19.40;;;;;;;10.88;43.79;100521.34;5010588;28;97568;-78
2021/11/25 11:01:49;;;;;;;31.80;19.05;;;;;;;11.12;43.37;100524.78;5011758;28;96940;-79
2021/11/25 11:04:22;;;;;;;31.73;19.48;;;;;;;11.13;43.16;100521.22;5015561;28;96897;-78
2021/11/25 11:06:49;;;;;;;35.72;21.10;;;;;;;10.90;43.79;100516.84;5014838;28;99411;-79
2021/11/25 11:09:34;;;;;;;41.17;23.90;;;;;;;11.11;42.73;100501.88;5014246;28;98753;-79
2021/11/25 11:12:19;;;;;;;41.47;25.00;;;;;;;11.02;42.95;100507.56;5009893;28;97686;-79
2021/11/25 11:14:50;;;;;;;44.70;25.48;;;;;;;10.91;43.68;100497.41;5016823;28;96950;-79
2021/11/25 11:17:28;;;;;;;45.35;24.02;;;;;;;11.30;43.12;100502.84;5019489;28;98828;-78
2021/11/25 11:20:09;;;;;;;38.35;24.67;;;;;;;11.29;42.95;100500.28;5013331;28;100118;-80
2021/11/25 11:22:37;;;;;;;42.70;23.45;;;;;;;11.22;43.54;100502.31;5011023;28;98266;-79